createdAt,value
2022-10-13T00:01:16.163Z,15.40
2022-10-13T00:03:47.038Z,15.40
2022-10-13T00:06:21.634Z,15.30
2022-10-13T00:08:49.857Z,15.30
2022-10-13T00:11:18.171Z,15.30
2022-10-13T00:13:46.351Z,15.30
2022-10-13T00:16:15.777Z,15.30
2022-10-13T00:18:42.706Z,15.20
2022-10-13T00:21:12.663Z,15.20
2022-10-13T00:23:40.551Z,15.30
2022-10-13T00:26:11.841Z,15.20
2022-10-13T00:28:39.431Z,15.20
2022-10-13T00:31:19.474Z,15.20
2022-10-13T00:33:46.532Z,15.20
2022-10-13T00:36:13.544Z,15.20
2022-10-13T00:38:40.367Z,15.10
2022-10-13T00:41:07.483Z,15.10
2022-10-13T00:44:12.527Z,15.10
2022-10-13T00:46:39.349Z,15.10
2022-10-13T00:49:14.299Z,15.10
2022-10-13T00:51:49.058Z,15.10
2022-10-13T00:54:22.697Z,15.10
2022-10-13T00:56:51.466Z,15.10
2022-10-13T00:59:28.931Z,15.10
2022-10-13T01:01:57.961Z,15.10
2022-10-13T01:04:31.838Z,15.10
2022-10-13T01:06:59.024Z,15.10
2022-10-13T01:09:25.819Z,15.10
2022-10-13T01:12:11.649Z,15.10
2022-10-13T01:15:09.711Z,15.10
2022-10-13T01:17:54.741Z,15.10
2022-10-13T01:20:24.330Z,15.10
2022-10-13T01:23:14.082Z,15.10
2022-10-13T01:25:46.433Z,15.20
2022-10-13T01:28:35.123Z,15.10
2022-10-13T01:31:32.391Z,15.20
2022-10-13T01:34:30.403Z,15.20
2022-10-13T01:37:09.409Z,15.20
2022-10-13T01:39:45.056Z,15.20
2022-10-13T01:42:19.876Z,15.20
2022-10-13T01:44:51.712Z,15.20
2022-10-13T01:47:20.632Z,15.20
2022-10-13T01:49:52.220Z,15.20
2022-10-13T01:52:21.849Z,15.20
2022-10-13T01:54:53.199Z,15.20
2022-10-13T01:57:31.358Z,15.20
2022-10-13T02:00:01.749Z,15.10
2022-10-13T02:02:42.796Z,15.20
2022-10-13T02:05:32.838Z,15.20
2022-10-13T02:08:09.382Z,15.10
2022-10-13T02:10:44.665Z,15.10
2022-10-13T02:13:14.561Z,15.10
2022-10-13T02:15:47.468Z,15.10
2022-10-13T02:18:20.089Z,15.20
2022-10-13T02:20:47.911Z,15.10
2022-10-13T02:23:17.569Z,15.10
2022-10-13T02:25:46.036Z,15.00
2022-10-13T02:28:15.137Z,15.10
2022-10-13T02:30:46.018Z,15.10
2022-10-13T02:33:14.443Z,15.00
2022-10-13T02:35:42.074Z,15.10
2022-10-13T02:38:09.394Z,15.00
2022-10-13T02:40:36.426Z,15.10
2022-10-13T02:43:03.600Z,15.00
2022-10-13T02:45:30.418Z,15.00
2022-10-13T02:47:58.052Z,15.00
2022-10-13T02:50:24.954Z,15.00
2022-10-13T02:52:51.961Z,15.00
2022-10-13T02:55:18.859Z,15.00
2022-10-13T02:57:45.943Z,15.00
2022-10-13T03:00:13.815Z,18.30
2022-10-13T03:02:40.764Z,15.00
2022-10-13T03:05:08.006Z,15.00
2022-10-13T03:07:34.789Z,15.00
2022-10-13T03:10:01.704Z,15.00
2022-10-13T03:24:48.482Z,14.90
2022-10-13T03:27:15.744Z,14.90
2022-10-13T03:29:42.621Z,14.90
2022-10-13T03:32:09.790Z,14.90
2022-10-13T03:34:36.683Z,14.90
2022-10-13T03:37:03.657Z,14.90
2022-10-13T03:39:34.348Z,14.70
2022-10-13T03:44:28.424Z,14.90
2022-10-13T03:46:55.505Z,14.90
2022-10-13T03:49:22.299Z,14.90
2022-10-13T03:51:49.211Z,14.90
2022-10-13T03:54:16.704Z,14.90
2022-10-13T03:59:17.075Z,14.90
2022-10-13T04:04:14.010Z,15.00
2022-10-13T04:06:42.200Z,14.90
2022-10-13T04:09:09.640Z,14.90
2022-10-13T04:11:36.708Z,14.90
2022-10-13T04:14:03.804Z,15.00
2022-10-13T04:16:31.867Z,14.90
2022-10-13T04:19:01.964Z,14.90
2022-10-13T04:21:30.516Z,14.90
2022-10-13T04:23:59.001Z,14.90
2022-10-13T04:26:28.429Z,15.00
2022-10-13T04:28:56.566Z,15.00
2022-10-13T04:31:24.619Z,14.90
2022-10-13T04:33:53.246Z,15.00
2022-10-13T04:36:20.364Z,14.90
2022-10-13T04:38:50.367Z,15.00
2022-10-13T04:41:19.087Z,15.00
2022-10-13T04:43:53.025Z,15.00
2022-10-13T04:46:25.745Z,15.00
2022-10-13T04:48:55.480Z,15.00
2022-10-13T04:51:26.216Z,15.00
2022-10-13T04:54:05.510Z,15.00
2022-10-13T04:56:32.623Z,15.00
2022-10-13T04:59:02.459Z,15.00
2022-10-13T05:01:29.230Z,15.00
2022-10-13T05:03:58.919Z,15.00
2022-10-13T05:06:28.826Z,15.00
2022-10-13T05:08:56.472Z,15.00
2022-10-13T05:11:25.425Z,15.00
2022-10-13T05:13:52.787Z,15.00
2022-10-13T05:16:21.226Z,15.00
2022-10-13T05:18:49.716Z,15.00
2022-10-13T05:21:24.859Z,15.00
2022-10-13T05:23:54.768Z,15.00
2022-10-13T05:26:32.042Z,15.00
2022-10-13T05:29:00.297Z,14.90
2022-10-13T05:31:32.272Z,14.90
2022-10-13T05:33:59.945Z,14.90
2022-10-13T05:38:56.897Z,14.90
2022-10-13T05:41:24.943Z,14.90
2022-10-13T05:43:57.313Z,14.90
2022-10-13T05:46:24.682Z,14.70
2022-10-13T05:48:51.822Z,14.90
2022-10-13T05:51:24.104Z,14.90
2022-10-13T05:53:57.791Z,14.90
2022-10-13T05:56:29.714Z,14.90
2022-10-13T05:59:02.643Z,14.90
2022-10-13T06:01:32.996Z,14.90
2022-10-13T06:04:04.249Z,14.90
2022-10-13T06:06:31.804Z,14.90
2022-10-13T06:09:00.265Z,14.90
2022-10-13T06:13:54.635Z,14.90
2022-10-13T06:18:48.724Z,14.90
2022-10-13T06:21:15.726Z,14.90
2022-10-13T06:23:42.521Z,14.90
2022-10-13T06:26:09.423Z,14.90
2022-10-13T06:28:37.365Z,14.90
2022-10-13T06:31:06.582Z,15.00
2022-10-13T06:33:34.139Z,15.00
2022-10-13T06:36:02.752Z,15.00
2022-10-13T06:38:29.628Z,15.00
2022-10-13T06:41:00.408Z,15.00
2022-10-13T06:43:38.687Z,15.10
2022-10-13T06:46:10.220Z,15.10
2022-10-13T06:48:37.369Z,15.10
2022-10-13T06:51:06.624Z,15.10
2022-10-13T06:53:33.931Z,15.20
2022-10-13T06:56:02.668Z,15.20
2022-10-13T06:58:30.750Z,15.10
2022-10-13T07:00:57.964Z,15.20
2022-10-13T07:03:25.428Z,15.20
2022-10-13T07:05:52.361Z,15.10
2022-10-13T07:08:19.462Z,15.10
2022-10-13T07:10:46.439Z,15.10
2022-10-13T07:13:13.349Z,15.10
2022-10-13T07:15:41.300Z,15.30
2022-10-13T07:18:08.409Z,15.20
2022-10-13T07:20:35.785Z,15.20
2022-10-13T07:23:03.540Z,15.30
2022-10-13T07:25:30.692Z,17.20
2022-10-13T07:27:59.900Z,15.20
2022-10-13T07:30:27.739Z,15.20
2022-10-13T07:32:54.832Z,15.20
2022-10-13T07:35:26.881Z,15.30
2022-10-13T07:37:56.467Z,17.60
2022-10-13T07:40:24.063Z,15.20
2022-10-13T07:42:50.964Z,15.30
2022-10-13T07:45:17.861Z,16.90
2022-10-13T07:47:44.802Z,17.20
2022-10-13T07:50:11.952Z,15.50
2022-10-13T07:52:39.200Z,15.20
2022-10-13T07:55:07.172Z,15.20
2022-10-13T07:57:34.315Z,15.20
2022-10-13T08:00:01.246Z,15.20
2022-10-13T08:02:30.060Z,15.20
2022-10-13T08:04:56.923Z,15.20
2022-10-13T08:07:23.995Z,15.50
2022-10-13T08:09:50.859Z,15.30
2022-10-13T08:12:18.161Z,15.30
2022-10-13T08:14:45.357Z,15.40
2022-10-13T08:17:13.020Z,15.40
2022-10-13T08:19:39.964Z,15.40
2022-10-13T08:22:09.754Z,15.40
2022-10-13T08:24:37.433Z,15.50
2022-10-13T08:27:04.371Z,15.50
2022-10-13T08:29:34.504Z,15.60
2022-10-13T08:32:01.646Z,15.60
2022-10-13T08:34:29.563Z,15.60
2022-10-13T08:36:57.410Z,15.70
2022-10-13T08:39:25.272Z,15.70
2022-10-13T08:41:53.071Z,15.80
2022-10-13T08:47:27.900Z,15.80
2022-10-13T08:50:04.014Z,16.00
2022-10-13T08:52:50.006Z,16.00
2022-10-13T08:55:43.146Z,16.00
2022-10-13T08:58:19.525Z,16.10
2022-10-13T09:00:46.912Z,16.10
2022-10-13T09:03:23.065Z,16.10
2022-10-13T09:05:59.056Z,16.20
2022-10-13T09:08:31.042Z,16.10
2022-10-13T09:10:59.645Z,16.20
2022-10-13T09:13:27.261Z,16.20
2022-10-13T09:15:56.372Z,16.30
2022-10-13T09:18:30.693Z,16.20
2022-10-13T09:21:15.668Z,16.30
2022-10-13T09:23:42.788Z,16.30
2022-10-13T09:26:20.786Z,16.40
2022-10-13T09:28:48.931Z,16.40
2022-10-13T09:31:17.682Z,16.40
2022-10-13T09:33:45.622Z,16.40
2022-10-13T09:36:15.520Z,16.40
2022-10-13T09:39:07.922Z,16.40
2022-10-13T09:44:19.105Z,19.50
2022-10-13T09:46:56.827Z,16.40
2022-10-13T09:49:38.500Z,16.40
2022-10-13T09:52:18.435Z,16.40
2022-10-13T09:54:47.238Z,16.40
2022-10-13T09:57:30.147Z,16.40
2022-10-13T10:00:21.467Z,16.40
2022-10-13T10:02:54.136Z,16.50
2022-10-13T10:05:32.840Z,16.40
2022-10-13T10:08:11.463Z,16.40
2022-10-13T10:13:13.385Z,16.50
2022-10-13T10:15:51.978Z,16.50
2022-10-13T10:29:13.653Z,16.70
2022-10-13T10:34:32.969Z,16.80
2022-10-13T10:39:51.318Z,16.80
2022-10-13T11:17:55.617Z,17.30
2022-10-13T11:30:56.147Z,17.70
2022-10-13T11:36:37.325Z,17.90
2022-10-13T11:39:12.947Z,17.90
2022-10-13T11:47:08.237Z,18.20
2022-10-13T11:49:54.083Z,18.30
2022-10-13T12:10:29.769Z,18.70
2022-10-13T13:23:51.107Z,19.20
2022-10-13T13:33:46.914Z,19.30
2022-10-13T13:43:46.962Z,19.40
2022-10-13T14:18:25.684Z,19.50
2022-10-13T15:32:26.224Z,19.30
2022-10-13T16:56:34.439Z,19.00
2022-10-13T17:11:26.915Z,18.90
2022-10-13T17:49:04.616Z,18.90
2022-10-13T17:58:54.577Z,18.80
2022-10-13T18:11:23.150Z,18.70
2022-10-13T18:51:15.433Z,18.50
2022-10-13T20:13:18.793Z,18.20
2022-10-13T20:20:42.730Z,18.10
2022-10-13T20:23:09.954Z,18.10
2022-10-13T20:25:39.070Z,18.10
2022-10-13T20:28:06.504Z,18.10
2022-10-13T20:37:58.345Z,18.00
2022-10-13T20:40:25.176Z,18.00
2022-10-13T20:42:52.872Z,17.90
2022-10-13T20:45:20.386Z,18.00
2022-10-13T20:52:43.000Z,17.80
2022-10-13T20:55:10.059Z,17.80
2022-10-13T21:00:05.941Z,17.80
2022-10-13T21:02:33.000Z,17.70
2022-10-13T21:09:55.339Z,17.70
2022-10-13T21:17:16.809Z,17.70
2022-10-13T21:19:43.645Z,17.60
2022-10-13T21:22:10.699Z,17.60
2022-10-13T21:24:37.512Z,17.60
2022-10-13T21:27:04.438Z,17.60
2022-10-13T21:31:58.929Z,17.60
2022-10-13T21:39:20.258Z,17.60
2022-10-13T21:41:47.052Z,17.60
2022-10-13T21:44:14.846Z,17.60
2022-10-13T21:46:41.779Z,17.60
2022-10-13T21:49:09.725Z,17.60
2022-10-13T21:51:39.548Z,17.60
2022-10-13T21:54:09.578Z,17.60
2022-10-13T21:56:37.656Z,17.60
2022-10-13T21:59:05.747Z,17.60
2022-10-13T22:01:33.295Z,17.50
2022-10-13T22:04:02.435Z,17.50
2022-10-13T22:06:30.961Z,17.50
2022-10-13T22:08:59.862Z,17.50
2022-10-13T22:11:30.437Z,17.50
2022-10-13T22:13:58.239Z,17.50
2022-10-13T22:16:32.425Z,17.40
2022-10-13T22:21:29.752Z,13.90
2022-10-13T22:23:59.284Z,17.40
2022-10-13T22:26:27.709Z,17.40
2022-10-13T22:33:53.434Z,17.40
2022-10-13T22:36:23.070Z,17.40
2022-10-13T22:38:51.882Z,17.40
2022-10-13T22:41:20.547Z,17.40
2022-10-13T22:43:56.430Z,17.40
2022-10-13T22:46:25.598Z,17.40
2022-10-13T22:51:21.618Z,17.40
2022-10-13T22:53:49.339Z,17.40
2022-10-13T22:56:25.586Z,17.40
2022-10-13T22:58:58.439Z,17.40
2022-10-13T23:03:55.775Z,17.40
2022-10-13T23:06:25.262Z,17.40
2022-10-13T23:08:52.455Z,17.40
2022-10-13T23:11:20.277Z,17.40
2022-10-13T23:16:18.223Z,17.40
2022-10-13T23:21:26.008Z,17.40
2022-10-13T23:23:58.427Z,17.40
2022-10-13T23:26:25.906Z,17.40
2022-10-13T23:31:20.916Z,17.40
2022-10-13T23:33:47.885Z,17.40
2022-10-13T23:36:18.432Z,17.50
2022-10-13T23:41:16.088Z,17.50
2022-10-13T23:43:43.569Z,17.50
2022-10-13T23:48:39.107Z,17.50
2022-10-13T23:51:08.618Z,17.50
2022-10-13T23:53:36.939Z,17.50
2022-10-13T23:56:05.152Z,17.50
2022-10-13T23:58:32.789Z,17.50
